createdAt,value
2023-03-05T00:01:30.878Z,101300.13
2023-03-05T00:03:59.181Z,101305.47
2023-03-05T00:06:29.187Z,101297.50
2023-03-05T00:08:58.559Z,101300.28
2023-03-05T00:11:29.998Z,101303.97
2023-03-05T00:13:59.984Z,101305.81
2023-03-05T00:16:28.693Z,101298.75
2023-03-05T00:18:58.415Z,101306.72
2023-03-05T00:21:28.344Z,101298.78
2023-03-05T00:23:57.379Z,101289.13
2023-03-05T00:26:27.603Z,101288.34
2023-03-05T00:28:56.728Z,101287.56
2023-03-05T00:31:30.370Z,101285.00
2023-03-05T00:34:00.296Z,101275.41
2023-03-05T00:36:29.036Z,101281.72
2023-03-05T00:38:57.608Z,101282.75
2023-03-05T00:41:26.171Z,101274.81
2023-03-05T00:43:54.415Z,101278.34
2023-03-05T00:46:23.173Z,101273.97
2023-03-05T00:48:52.818Z,101264.22
2023-03-05T00:51:21.214Z,101264.22
2023-03-05T00:53:49.512Z,101255.38
2023-03-05T00:56:18.092Z,101255.47
2023-03-05T00:58:46.405Z,101252.88
2023-03-05T01:01:15.160Z,101242.25
2023-03-05T01:03:43.476Z,101248.56
2023-03-05T01:06:15.182Z,101253.03
2023-03-05T01:08:43.804Z,101242.44
2023-03-05T01:11:13.141Z,101244.22
2023-03-05T01:13:42.103Z,101240.66
2023-03-05T01:16:10.524Z,101240.72
2023-03-05T01:18:39.748Z,101238.13
2023-03-05T01:21:08.382Z,101231.06
2023-03-05T01:23:38.453Z,101236.44
2023-03-05T01:26:08.504Z,101240.03
2023-03-05T01:28:38.222Z,101224.09
2023-03-05T01:31:09.846Z,101236.56
2023-03-05T01:33:38.326Z,101225.13
2023-03-05T01:36:10.187Z,101228.72
2023-03-05T01:38:40.021Z,101234.91
2023-03-05T01:41:08.495Z,101227.88
2023-03-05T01:43:37.275Z,101228.78
2023-03-05T01:46:34.755Z,101224.34
2023-03-05T01:49:16.080Z,101222.63
2023-03-05T01:51:58.767Z,101216.47
2023-03-05T01:54:33.651Z,101212.09
2023-03-05T01:57:05.870Z,101215.69
2023-03-05T01:59:34.153Z,101209.56
2023-03-05T02:02:04.018Z,101202.50
2023-03-05T02:04:37.760Z,101208.75
2023-03-05T02:07:06.366Z,101201.66
2023-03-05T02:09:39.316Z,101199.97
2023-03-05T02:12:08.315Z,101194.72
2023-03-05T02:14:37.014Z,101191.22
2023-03-05T02:17:05.400Z,101183.25
2023-03-05T02:19:47.729Z,101177.94
2023-03-05T02:22:18.224Z,101183.19
2023-03-05T02:24:46.572Z,101180.56
2023-03-05T02:27:15.757Z,101175.19
2023-03-05T02:29:47.360Z,101177.84
2023-03-05T02:32:15.703Z,101177.81
2023-03-05T02:34:44.485Z,101180.41
2023-03-05T02:37:12.794Z,101183.91
2023-03-05T02:39:42.356Z,101175.88
2023-03-05T02:42:10.910Z,101173.19
2023-03-05T02:44:39.184Z,101182.03
2023-03-05T02:47:07.807Z,101168.69
2023-03-05T02:49:36.049Z,101162.50
2023-03-05T02:52:04.392Z,101166.06
2023-03-05T02:54:32.548Z,101163.25
2023-03-05T02:57:02.206Z,101157.78
2023-03-05T02:59:30.569Z,101163.13
2023-03-05T03:01:58.866Z,101152.47
2023-03-05T03:04:27.198Z,101145.34
2023-03-05T03:06:55.462Z,101151.47
2023-03-05T03:09:23.827Z,101151.38
2023-03-05T03:11:52.109Z,101149.50
2023-03-05T03:14:22.242Z,101141.47
2023-03-05T03:16:50.580Z,101144.09
2023-03-05T03:19:19.029Z,101131.66
2023-03-05T03:21:47.308Z,101125.34
2023-03-05T03:24:15.534Z,101127.97
2023-03-05T03:26:43.792Z,101114.66
2023-03-05T03:29:12.016Z,101121.78
2023-03-05T03:31:41.893Z,101115.53
2023-03-05T03:34:10.156Z,101120.78
2023-03-05T03:36:38.457Z,101115.41
2023-03-05T03:39:09.889Z,101117.06
2023-03-05T03:41:38.548Z,101110.75
2023-03-05T03:44:08.813Z,101108.06
2023-03-05T03:46:37.333Z,101096.56
2023-03-05T03:49:07.163Z,101100.19
2023-03-05T03:51:35.628Z,101097.63
2023-03-05T03:54:03.871Z,101098.59
2023-03-05T03:56:32.157Z,101097.72
2023-03-05T03:59:00.388Z,101098.66
2023-03-05T04:01:28.695Z,101096.06
2023-03-05T04:03:57.017Z,101091.78
2023-03-05T04:06:26.765Z,101080.28
2023-03-05T04:08:55.036Z,101087.47
2023-03-05T04:11:23.305Z,101081.38
2023-03-05T04:13:51.566Z,101080.59
2023-03-05T04:16:20.470Z,101085.06
2023-03-05T04:18:48.894Z,101073.56
2023-03-05T04:21:17.334Z,101074.63
2023-03-05T04:23:47.306Z,101075.63
2023-03-05T04:26:15.667Z,101071.34
2023-03-05T04:28:43.969Z,101065.25
2023-03-05T04:31:12.238Z,101070.56
2023-03-05T04:33:40.630Z,101070.56
2023-03-05T04:36:09.537Z,101067.94
2023-03-05T04:38:37.802Z,101064.38
2023-03-05T04:41:07.534Z,101063.50
2023-03-05T04:43:35.769Z,101056.44
2023-03-05T04:46:03.997Z,101059.09
2023-03-05T04:48:32.243Z,101057.31
2023-03-05T04:51:00.510Z,101054.56
2023-03-05T04:53:28.731Z,101055.44
2023-03-05T04:55:57.421Z,101049.16
2023-03-05T04:58:27.100Z,101050.84
2023-03-05T05:00:55.353Z,101047.38
2023-03-05T05:03:23.583Z,101049.28
2023-03-05T05:05:56.243Z,101051.13
2023-03-05T05:08:24.751Z,101043.09
2023-03-05T05:11:04.234Z,101043.13
2023-03-05T05:13:34.059Z,101038.78
2023-03-05T05:16:02.714Z,101039.69
2023-03-05T05:18:30.951Z,101036.16
2023-03-05T05:20:59.271Z,101033.63
2023-03-05T05:23:27.613Z,101031.09
2023-03-05T05:26:00.288Z,101032.97
2023-03-05T05:28:29.129Z,101039.25
2023-03-05T05:30:58.962Z,101033.06
2023-03-05T05:33:27.577Z,101030.44
2023-03-05T05:35:55.842Z,101030.44
2023-03-05T05:38:24.091Z,101016.16
2023-03-05T05:40:52.459Z,101019.63
2023-03-05T05:43:20.711Z,101026.69
2023-03-05T05:45:49.064Z,101017.81
2023-03-05T05:48:18.773Z,101015.09
2023-03-05T05:50:46.975Z,101007.22
2023-03-05T05:53:15.239Z,101011.66
2023-03-05T05:55:43.520Z,101003.75
2023-03-05T05:58:12.244Z,101017.09
2023-03-05T06:00:40.538Z,101018.06
2023-03-05T06:03:09.024Z,101019.94
2023-03-05T06:05:38.690Z,101012.91
2023-03-05T06:08:07.419Z,101016.44
2023-03-05T06:10:35.887Z,101017.28
2023-03-05T06:13:04.236Z,101012.78
2023-03-05T06:15:32.504Z,101009.22
2023-03-05T06:18:01.182Z,101022.50
2023-03-05T06:20:29.418Z,101026.91
2023-03-05T06:22:59.009Z,101024.31
2023-03-05T06:25:27.370Z,101019.84
2023-03-05T06:27:55.674Z,101027.09
2023-03-05T06:30:23.928Z,101018.31
2023-03-05T06:32:52.283Z,101020.06
2023-03-05T06:35:20.763Z,101012.91
2023-03-05T06:37:49.074Z,101008.44
2023-03-05T06:40:18.959Z,101025.22
2023-03-05T06:42:47.169Z,101019.81
2023-03-05T06:45:15.600Z,101019.72
2023-03-05T06:47:44.015Z,101020.56
2023-03-05T06:50:13.324Z,101023.13
2023-03-05T06:52:41.740Z,101025.66
2023-03-05T06:55:10.772Z,101015.75
2023-03-05T06:57:40.449Z,101020.97
2023-03-05T07:00:11.059Z,101018.31
2023-03-05T07:02:39.853Z,101018.38
2023-03-05T07:05:09.376Z,101020.13
2023-03-05T07:07:37.794Z,101020.94
2023-03-05T07:10:08.033Z,101027.81
2023-03-05T07:12:36.409Z,101018.72
2023-03-05T07:15:07.110Z,101018.50
2023-03-05T07:17:35.402Z,101014.69
2023-03-05T07:20:04.538Z,101013.53
2023-03-05T07:22:32.912Z,101005.97
2023-03-05T07:25:01.141Z,101001.94
2023-03-05T07:27:29.401Z,100996.78
2023-03-05T07:29:57.583Z,100994.47
2023-03-05T07:32:27.296Z,101003.00
2023-03-05T07:34:55.610Z,101005.88
2023-03-05T07:37:23.907Z,101002.13
2023-03-05T07:39:52.129Z,100996.69
2023-03-05T07:42:20.519Z,100998.31
2023-03-05T07:44:48.906Z,101002.75
2023-03-05T07:47:17.146Z,100997.50
2023-03-05T07:49:46.851Z,101002.16
2023-03-05T07:52:15.143Z,101004.19
2023-03-05T07:54:43.822Z,100998.91
2023-03-05T07:57:13.415Z,101004.16
2023-03-05T07:59:41.590Z,100998.81
2023-03-05T08:02:12.042Z,100994.47
2023-03-05T08:04:40.526Z,100993.69
2023-03-05T08:07:10.262Z,100996.03
2023-03-05T08:09:38.436Z,100988.28
2023-03-05T08:12:06.943Z,100990.34
2023-03-05T08:14:35.057Z,100990.78
2023-03-05T08:17:04.596Z,100984.91
2023-03-05T08:19:33.629Z,100976.59
2023-03-05T08:22:01.849Z,100974.38
2023-03-05T08:24:31.342Z,100974.69
2023-03-05T08:26:59.998Z,100970.31
2023-03-05T08:29:28.183Z,100985.16
2023-03-05T08:31:56.523Z,100979.22
2023-03-05T08:34:24.618Z,100982.00
2023-03-05T08:36:52.713Z,100980.88
2023-03-05T08:39:20.848Z,100975.53
2023-03-05T08:41:50.328Z,100970.66
2023-03-05T08:44:18.454Z,100972.53
2023-03-05T08:46:46.554Z,100970.31
2023-03-05T08:49:14.658Z,100952.91
2023-03-05T08:51:42.791Z,100960.59
2023-03-05T08:54:11.113Z,100952.63
2023-03-05T08:56:39.337Z,100944.03
2023-03-05T08:59:08.899Z,100941.69
2023-03-05T09:01:36.994Z,100937.47
2023-03-05T09:04:05.386Z,100943.09
2023-03-05T09:06:34.437Z,100932.06
2023-03-05T09:09:02.529Z,100933.31
2023-03-05T09:11:30.731Z,100928.31
2023-03-05T09:13:58.897Z,100932.38
2023-03-05T09:16:28.549Z,100935.22
2023-03-05T09:18:56.836Z,100932.91
2023-03-05T09:21:24.970Z,100939.75
2023-03-05T09:23:53.080Z,100932.41
2023-03-05T09:26:21.379Z,100930.69
2023-03-05T09:28:49.581Z,100942.75
2023-03-05T09:31:17.871Z,100926.00
2023-03-05T09:33:48.984Z,100935.47
2023-03-05T09:36:19.842Z,100935.78
2023-03-05T09:38:48.061Z,100932.28
2023-03-05T09:41:19.581Z,100937.72
2023-03-05T09:43:55.765Z,100937.34
2023-03-05T09:46:33.646Z,100937.09
2023-03-05T09:49:09.541Z,100934.31
2023-03-05T09:51:40.422Z,100928.69
2023-03-05T09:54:14.183Z,100930.09
2023-03-05T09:56:44.034Z,100927.63
2023-03-05T09:59:21.552Z,100924.16
2023-03-05T10:01:50.637Z,100919.22
2023-03-05T10:04:24.287Z,100929.75
2023-03-05T10:06:57.289Z,100925.75
2023-03-05T10:09:38.399Z,100921.91
2023-03-05T10:12:09.196Z,100924.31
2023-03-05T10:14:40.703Z,100915.94
2023-03-05T10:17:25.695Z,100918.03
2023-03-05T10:20:28.218Z,100912.44
2023-03-05T10:23:15.743Z,100917.75
2023-03-05T10:25:54.468Z,100908.16
2023-03-05T10:28:29.411Z,100901.22
2023-03-05T10:31:09.098Z,100896.78
2023-03-05T10:33:43.970Z,100898.31
2023-03-05T10:36:25.912Z,100896.19
2023-03-05T10:39:31.894Z,100891.31
2023-03-05T10:42:08.353Z,100893.00
2023-03-05T10:44:40.756Z,100886.69
2023-03-05T10:47:15.762Z,100877.09
2023-03-05T10:49:49.699Z,100871.41
2023-03-05T10:52:23.352Z,100874.59
2023-03-05T10:54:51.679Z,100871.09
2023-03-05T10:57:21.900Z,100866.13
2023-03-05T10:59:51.833Z,100871.06
2023-03-05T11:02:20.535Z,100876.19
2023-03-05T11:04:49.187Z,100866.16
2023-03-05T11:07:38.599Z,100852.41
2023-03-05T11:10:16.102Z,100853.28
2023-03-05T11:12:45.049Z,100858.56
2023-03-05T11:15:30.139Z,100859.19
2023-03-05T11:18:18.558Z,100853.28
2023-03-05T11:20:46.944Z,100847.59
2023-03-05T11:23:18.008Z,100848.94
2023-03-05T11:26:02.095Z,100843.56
2023-03-05T11:28:34.151Z,100841.66
2023-03-05T11:31:09.437Z,100837.88
2023-03-05T11:33:38.542Z,100853.41
2023-03-05T11:36:14.088Z,100855.59
2023-03-05T11:38:54.585Z,100843.88
2023-03-05T11:41:28.135Z,100850.78
2023-03-05T11:43:56.859Z,100840.38
2023-03-05T11:46:25.297Z,100841.03
2023-03-05T11:48:55.420Z,100836.97
2023-03-05T11:51:27.223Z,100835.41
2023-03-05T11:54:00.693Z,100821.13
2023-03-05T11:56:31.174Z,100827.19
2023-03-05T11:59:02.870Z,100823.66
2023-03-05T12:01:33.845Z,100817.75
2023-03-05T12:04:01.995Z,100809.38
2023-03-05T12:06:35.415Z,100802.41
2023-03-05T12:09:09.318Z,100795.09
2023-03-05T12:11:37.675Z,100794.78
2023-03-05T12:14:11.095Z,100787.88
2023-03-05T12:16:42.559Z,100778.53
2023-03-05T12:19:34.555Z,100785.41
2023-03-05T12:22:02.942Z,100774.13
2023-03-05T12:24:39.443Z,100780.28
2023-03-05T12:27:10.545Z,100771.00
2023-03-05T12:29:44.612Z,100767.31
2023-03-05T12:32:59.327Z,100768.09
2023-03-05T12:35:38.384Z,100763.72
2023-03-05T12:38:30.032Z,100766.97
2023-03-05T12:41:44.307Z,100761.44
2023-03-05T12:44:22.288Z,100773.31
2023-03-05T12:47:23.438Z,100770.28
2023-03-05T12:49:51.911Z,100772.44
2023-03-05T12:52:26.394Z,100763.69
2023-03-05T12:55:21.345Z,100762.22
2023-03-05T12:57:59.505Z,100761.72
2023-03-05T13:00:34.643Z,100753.47
2023-03-05T13:03:05.468Z,100744.84
2023-03-05T13:05:35.355Z,100745.84
2023-03-05T13:08:16.169Z,100746.91
2023-03-05T13:10:46.833Z,100737.81
2023-03-05T13:13:15.943Z,100735.50
2023-03-05T13:15:48.352Z,100733.16
2023-03-05T13:18:20.567Z,100726.44
2023-03-05T13:20:52.163Z,100730.78
2023-03-05T13:23:23.878Z,100734.84
2023-03-05T13:26:04.337Z,100730.66
2023-03-05T13:28:33.435Z,100720.81
2023-03-05T13:31:04.055Z,100720.69
2023-03-05T13:33:34.001Z,100736.13
2023-03-05T13:36:02.529Z,100724.78
2023-03-05T13:38:36.016Z,100717.06
2023-03-05T13:41:21.178Z,100722.94
2023-03-05T13:43:50.579Z,100720.47
2023-03-05T13:46:31.237Z,100718.22
2023-03-05T13:49:17.980Z,100710.22
2023-03-05T13:51:48.182Z,100702.31
2023-03-05T13:54:17.889Z,100711.41
2023-03-05T13:56:56.719Z,100712.34
2023-03-05T13:59:27.852Z,100704.50
2023-03-05T14:01:58.985Z,100708.19
2023-03-05T14:04:28.940Z,100699.56
2023-03-05T14:07:00.408Z,100702.56
2023-03-05T14:09:30.389Z,100690.72
2023-03-05T14:12:01.996Z,100684.00
2023-03-05T14:14:31.923Z,100680.63
2023-03-05T14:17:35.910Z,100674.66
2023-03-05T14:20:23.114Z,100678.31
2023-03-05T14:22:52.934Z,100676.94
2023-03-05T14:25:30.178Z,100675.13
2023-03-05T14:27:58.712Z,100664.28
2023-03-05T14:30:27.202Z,100664.63
2023-03-05T14:32:56.980Z,100652.78
2023-03-05T14:35:27.890Z,100661.16
2023-03-05T14:37:57.705Z,100650.59
2023-03-05T14:40:29.811Z,100651.09
2023-03-05T14:42:58.585Z,100645.56
2023-03-05T14:45:27.987Z,100644.31
2023-03-05T14:48:00.391Z,100648.72
2023-03-05T14:50:30.016Z,100639.53
2023-03-05T14:52:59.670Z,100630.13
2023-03-05T14:55:31.636Z,100638.50
2023-03-05T14:58:04.244Z,100631.84
2023-03-05T15:00:32.662Z,100623.78
2023-03-05T15:03:02.129Z,100618.16
2023-03-05T15:05:30.375Z,100619.66
2023-03-05T15:07:59.021Z,100601.72
2023-03-05T15:10:27.318Z,100612.88
2023-03-05T15:12:55.382Z,100620.50
2023-03-05T15:15:23.864Z,100615.78
2023-03-05T15:17:54.950Z,100612.94
2023-03-05T15:20:25.777Z,100614.56
2023-03-05T15:22:54.599Z,100614.25
2023-03-05T15:25:24.280Z,100606.28
2023-03-05T15:27:52.392Z,100608.81
2023-03-05T15:30:24.124Z,100614.16
2023-03-05T15:32:54.114Z,100605.53
2023-03-05T15:35:22.417Z,100603.94
2023-03-05T15:37:52.336Z,100597.94
2023-03-05T15:40:21.182Z,100594.50
2023-03-05T15:42:49.745Z,100588.38
2023-03-05T15:45:18.901Z,100596.78
2023-03-05T15:47:50.016Z,100597.69
2023-03-05T15:50:18.733Z,100589.75
2023-03-05T15:52:46.893Z,100586.22
2023-03-05T15:55:18.250Z,100587.72
2023-03-05T15:57:47.645Z,100592.66
2023-03-05T16:00:17.942Z,100580.91
2023-03-05T16:02:46.053Z,100575.34
2023-03-05T16:05:14.122Z,100575.41
2023-03-05T16:07:46.030Z,100569.13
2023-03-05T16:10:17.567Z,100566.31
2023-03-05T16:12:49.273Z,100565.41
2023-03-05T16:15:19.829Z,100556.47
2023-03-05T16:17:51.090Z,100557.41
2023-03-05T16:20:20.329Z,100557.59
2023-03-05T16:22:49.778Z,100546.91
2023-03-05T16:25:18.611Z,100549.38
2023-03-05T16:27:48.120Z,100552.97
2023-03-05T16:30:17.258Z,100538.00
2023-03-05T16:32:45.518Z,100546.97
2023-03-05T16:35:13.769Z,100546.25
2023-03-05T16:37:42.716Z,100536.59
2023-03-05T16:40:12.969Z,100545.63
2023-03-05T16:42:41.952Z,100537.69
2023-03-05T16:45:13.132Z,100536.03
2023-03-05T16:47:41.792Z,100531.63
2023-03-05T16:50:11.456Z,100534.44
2023-03-05T16:52:39.734Z,100525.66
2023-03-05T16:55:08.322Z,100527.41
2023-03-05T16:57:36.518Z,100533.69
2023-03-05T17:00:05.552Z,100516.94
2023-03-05T17:02:35.051Z,100526.94
2023-03-05T17:05:03.695Z,100525.31
2023-03-05T17:07:31.807Z,100524.53
2023-03-05T17:09:59.898Z,100520.19
2023-03-05T17:12:28.163Z,100515.78
2023-03-05T17:14:56.239Z,100516.72
2023-03-05T17:17:24.458Z,100518.66
2023-03-05T17:19:53.914Z,100515.31
2023-03-05T17:22:22.026Z,100517.91
2023-03-05T17:24:50.183Z,100513.44
2023-03-05T17:27:20.350Z,100522.31
2023-03-05T17:29:48.410Z,100517.19
2023-03-05T17:32:16.535Z,100506.44
2023-03-05T17:34:44.682Z,100511.84
2023-03-05T17:37:16.224Z,100509.25
2023-03-05T17:39:44.322Z,100508.38
2023-03-05T17:42:12.758Z,100510.09
2023-03-05T17:44:40.818Z,100502.09
2023-03-05T17:47:08.957Z,100506.50
2023-03-05T17:49:37.067Z,100507.44
2023-03-05T17:52:05.750Z,100509.16
2023-03-05T17:54:35.307Z,100503.91
2023-03-05T17:57:03.445Z,100513.56
2023-03-05T17:59:31.667Z,100516.09
2023-03-05T18:01:59.774Z,100514.22
2023-03-05T18:04:27.887Z,100510.75
2023-03-05T18:06:55.966Z,100509.03
2023-03-05T18:09:24.044Z,100508.31
2023-03-05T18:11:53.732Z,100507.66
2023-03-05T18:14:21.936Z,100514.03
2023-03-05T18:16:50.238Z,100508.16
2023-03-05T18:19:18.690Z,100504.66
2023-03-05T18:21:46.868Z,100502.00
2023-03-05T18:24:14.961Z,100502.84
2023-03-05T18:26:43.037Z,100493.94
2023-03-05T18:29:12.538Z,100494.81
2023-03-05T18:31:40.611Z,100490.34
2023-03-05T18:34:08.719Z,100485.00
2023-03-05T18:36:36.817Z,100484.06
2023-03-05T18:39:05.301Z,100483.13
2023-03-05T18:41:33.720Z,100481.47
2023-03-05T18:44:01.871Z,100486.19
2023-03-05T18:46:31.468Z,100479.19
2023-03-05T18:48:59.566Z,100476.59
2023-03-05T18:51:28.120Z,100476.72
2023-03-05T18:53:57.453Z,100473.13
2023-03-05T18:56:25.798Z,100470.44
2023-03-05T18:58:53.968Z,100458.03
2023-03-05T19:01:22.358Z,100461.50
2023-03-05T19:03:51.941Z,100455.25
2023-03-05T19:06:20.560Z,100456.97
2023-03-05T19:08:56.636Z,100454.38
2023-03-05T19:11:24.838Z,100453.44
2023-03-05T19:13:53.233Z,100452.56
2023-03-05T19:16:22.702Z,100450.94
2023-03-05T19:19:03.181Z,100458.94
2023-03-05T19:21:31.528Z,100451.88
2023-03-05T19:24:00.021Z,100446.53
2023-03-05T19:26:28.110Z,100441.34
2023-03-05T19:28:56.205Z,100444.06
2023-03-05T19:31:24.397Z,100442.41
2023-03-05T19:33:54.898Z,100437.22
2023-03-05T19:36:23.108Z,100440.84
2023-03-05T19:38:51.168Z,100439.97
2023-03-05T19:41:21.166Z,100440.78
2023-03-05T19:43:50.502Z,100434.53
2023-03-05T19:46:18.909Z,100427.41
2023-03-05T19:48:47.146Z,100422.94
2023-03-05T19:51:19.090Z,100423.88
2023-03-05T19:53:47.388Z,100415.91
2023-03-05T19:56:16.701Z,100422.25
2023-03-05T19:58:45.989Z,100412.59
2023-03-05T20:01:15.576Z,100414.44
2023-03-05T20:03:45.346Z,100417.25
2023-03-05T20:06:13.695Z,100405.88
2023-03-05T20:08:43.710Z,100408.63
2023-03-05T20:11:13.553Z,100413.03
2023-03-05T20:13:41.928Z,100413.09
2023-03-05T20:16:15.703Z,100415.81
2023-03-05T20:18:43.906Z,100412.28
2023-03-05T20:21:12.138Z,100409.69
2023-03-05T20:23:40.279Z,100407.91
2023-03-05T20:26:09.723Z,100401.63
2023-03-05T20:28:37.818Z,100398.09
2023-03-05T20:31:06.300Z,100389.41
2023-03-05T20:33:34.349Z,100389.66
2023-03-05T20:36:02.447Z,100380.88
2023-03-05T20:38:31.473Z,100385.28
2023-03-05T20:41:00.935Z,100382.75
2023-03-05T20:43:32.017Z,100383.66
2023-03-05T20:46:01.088Z,100378.44
2023-03-05T20:48:31.056Z,100375.13
2023-03-05T20:51:01.471Z,100384.09
2023-03-05T20:53:29.562Z,100381.56
2023-03-05T20:55:57.667Z,100377.97
2023-03-05T20:58:25.767Z,100369.91
2023-03-05T21:00:55.465Z,100368.13
2023-03-05T21:03:25.526Z,100371.59
2023-03-05T21:05:56.404Z,100365.38
2023-03-05T21:08:24.545Z,100368.19
2023-03-05T21:10:52.661Z,100369.97
2023-03-05T21:13:20.799Z,100367.25
2023-03-05T21:15:48.914Z,100363.78
2023-03-05T21:18:18.539Z,100359.34
2023-03-05T21:20:46.681Z,100356.69
2023-03-05T21:23:14.758Z,100352.25
2023-03-05T21:25:42.914Z,100358.47
2023-03-05T21:28:15.307Z,100351.50
2023-03-05T21:30:44.835Z,100342.69
2023-03-05T21:33:14.649Z,100344.69
2023-03-05T21:35:44.829Z,100347.44
2023-03-05T21:38:14.086Z,100342.13
2023-03-05T21:40:45.567Z,100335.06
2023-03-05T21:43:14.072Z,100331.59
2023-03-05T21:45:42.474Z,100329.06
2023-03-05T21:48:10.636Z,100332.69
2023-03-05T21:50:40.296Z,100325.63
2023-03-05T21:53:10.272Z,100316.81
2023-03-05T21:55:46.481Z,100323.94
2023-03-05T21:58:14.850Z,100317.75
2023-03-05T22:00:42.985Z,100323.88
2023-03-05T22:03:11.075Z,100320.28
2023-03-05T22:05:39.211Z,100318.56
2023-03-05T22:08:07.276Z,100311.59
2023-03-05T22:10:36.754Z,100319.84
2023-03-05T22:13:12.453Z,100311.28
2023-03-05T22:15:45.398Z,100302.63
2023-03-05T22:18:13.954Z,100302.75
2023-03-05T22:20:42.329Z,100301.03
2023-03-05T22:23:10.661Z,100302.00
2023-03-05T22:25:40.705Z,100296.88
2023-03-05T22:28:09.481Z,100297.72
2023-03-05T22:30:38.105Z,100302.19
2023-03-05T22:33:06.191Z,100295.25
2023-03-05T22:35:34.330Z,100301.53
2023-03-05T22:38:02.413Z,100306.06
2023-03-05T22:40:30.519Z,100291.03
2023-03-05T22:42:59.976Z,100296.22
2023-03-05T22:45:29.638Z,100287.34
2023-03-05T22:47:58.012Z,100287.34
2023-03-05T22:50:26.134Z,100291.78
2023-03-05T22:52:54.227Z,100285.53
2023-03-05T22:55:22.454Z,100284.59
2023-03-05T22:57:50.695Z,100287.28
2023-03-05T23:00:23.550Z,100283.81
2023-03-05T23:02:52.458Z,100278.50
2023-03-05T23:05:21.116Z,100275.97
2023-03-05T23:07:49.261Z,100280.63
2023-03-05T23:10:18.808Z,100279.88
2023-03-05T23:12:49.431Z,100277.28
2023-03-05T23:15:19.156Z,100277.19
2023-03-05T23:17:48.661Z,100279.84
2023-03-05T23:20:17.780Z,100276.25
2023-03-05T23:22:46.225Z,100276.41
2023-03-05T23:25:16.417Z,100269.34
2023-03-05T23:27:44.947Z,100277.34
2023-03-05T23:30:17.437Z,100273.75
2023-03-05T23:32:47.178Z,100271.06
2023-03-05T23:35:18.401Z,100275.53
2023-03-05T23:37:46.716Z,100266.69
2023-03-05T23:40:18.242Z,100265.75
2023-03-05T23:42:46.349Z,100268.41
2023-03-05T23:45:15.995Z,100257.78
2023-03-05T23:47:44.353Z,100267.47
2023-03-05T23:50:16.085Z,100259.47
2023-03-05T23:52:46.672Z,100256.81
2023-03-05T23:55:17.313Z,100261.34
2023-03-05T23:57:45.846Z,100259.63
